sensor_id;sensor_type;location;lat;lon;timestamp;temperature;humidity
80230;DHT22;69540;42.136;24.742;2023-05-16T00:01:17;23.40;40.30
80230;DHT22;69540;42.136;24.742;2023-05-16T00:03:44;23.40;40.40
80230;DHT22;69540;42.136;24.742;2023-05-16T00:06:10;23.40;40.20
80230;DHT22;69540;42.136;24.742;2023-05-16T00:08:35;23.40;40.20
80230;DHT22;69540;42.136;24.742;2023-05-16T00:11:01;23.40;40.20
80230;DHT22;69540;42.136;24.742;2023-05-16T00:13:28;23.40;40.30
80230;DHT22;69540;42.136;24.742;2023-05-16T00:15:54;23.40;40.30
80230;DHT22;69540;42.136;24.742;2023-05-16T00:18:21;23.40;40.30
80230;DHT22;69540;42.136;24.742;2023-05-16T00:20:48;23.40;41.40
80230;DHT22;69540;42.136;24.742;2023-05-16T00:23:14;23.40;40.20
80230;DHT22;69540;42.136;24.742;2023-05-16T00:25:40;23.40;40.30
80230;DHT22;69540;42.136;24.742;2023-05-16T00:28:06;23.40;40.20
80230;DHT22;69540;42.136;24.742;2023-05-16T00:30:33;23.40;40.20
80230;DHT22;69540;42.136;24.742;2023-05-16T00:32:59;23.30;40.20
80230;DHT22;69540;42.136;24.742;2023-05-16T00:35:25;23.40;40.30
80230;DHT22;69540;42.136;24.742;2023-05-16T00:37:51;23.40;40.20
80230;DHT22;69540;42.136;24.742;2023-05-16T00:40:17;23.30;40.10
80230;DHT22;69540;42.136;24.742;2023-05-16T00:42:43;23.30;40.10
80230;DHT22;69540;42.136;24.742;2023-05-16T00:45:09;23.30;40.20
80230;DHT22;69540;42.136;24.742;2023-05-16T00:47:35;23.40;40.20
80230;DHT22;69540;42.136;24.742;2023-05-16T00:50:01;23.40;40.30
80230;DHT22;69540;42.136;24.742;2023-05-16T00:52:28;23.30;40.20
80230;DHT22;69540;42.136;24.742;2023-05-16T00:54:55;23.40;40.30
80230;DHT22;69540;42.136;24.742;2023-05-16T00:57:21;23.30;40.10
80230;DHT22;69540;42.136;24.742;2023-05-16T00:59:47;23.40;40.20
80230;DHT22;69540;42.136;24.742;2023-05-16T01:02:13;23.40;40.20
80230;DHT22;69540;42.136;24.742;2023-05-16T01:04:39;23.40;40.20
80230;DHT22;69540;42.136;24.742;2023-05-16T01:07:05;23.40;40.20
80230;DHT22;69540;42.136;24.742;2023-05-16T01:09:30;23.30;40.10
80230;DHT22;69540;42.136;24.742;2023-05-16T01:12:16;23.30;40.20
80230;DHT22;69540;42.136;24.742;2023-05-16T01:17:27;23.30;40.30
80230;DHT22;69540;42.136;24.742;2023-05-16T01:25:13;23.30;40.10
80230;DHT22;69540;42.136;24.742;2023-05-16T01:27:42;23.40;40.30
80230;DHT22;69540;42.136;24.742;2023-05-16T01:30:18;23.30;40.20
80230;DHT22;69540;42.136;24.742;2023-05-16T01:32:44;23.30;40.10
80230;DHT22;69540;42.136;24.742;2023-05-16T01:35:14;23.30;40.10
80230;DHT22;69540;42.136;24.742;2023-05-16T01:43:28;23.30;40.10
80230;DHT22;69540;42.136;24.742;2023-05-16T01:46:02;23.30;40.20
80230;DHT22;69540;42.136;24.742;2023-05-16T01:48:34;23.30;40.20
80230;DHT22;69540;42.136;24.742;2023-05-16T01:51:02;23.30;40.30
80230;DHT22;69540;42.136;24.742;2023-05-16T01:53:35;23.30;40.20
80230;DHT22;69540;42.136;24.742;2023-05-16T01:56:01;23.30;40.10
80230;DHT22;69540;42.136;24.742;2023-05-16T01:58:32;23.30;40.10
80230;DHT22;69540;42.136;24.742;2023-05-16T02:01:02;23.30;40.10
80230;DHT22;69540;42.136;24.742;2023-05-16T02:03:29;23.30;40.10
80230;DHT22;69540;42.136;24.742;2023-05-16T02:05:55;23.30;40.10
80230;DHT22;69540;42.136;24.742;2023-05-16T02:08:21;23.30;40.10
80230;DHT22;69540;42.136;24.742;2023-05-16T02:10:46;23.30;40.10
80230;DHT22;69540;42.136;24.742;2023-05-16T02:13:12;23.30;40.10
80230;DHT22;69540;42.136;24.742;2023-05-16T02:15:38;23.30;40.10
80230;DHT22;69540;42.136;24.742;2023-05-16T02:18:03;23.30;40.10
80230;DHT22;69540;42.136;24.742;2023-05-16T02:20:29;23.30;40.10
80230;DHT22;69540;42.136;24.742;2023-05-16T02:22:55;23.30;40.10
80230;DHT22;69540;42.136;24.742;2023-05-16T02:25:21;23.30;40.10
80230;DHT22;69540;42.136;24.742;2023-05-16T02:27:46;23.30;40.10
80230;DHT22;69540;42.136;24.742;2023-05-16T02:30:12;23.30;40.10
80230;DHT22;69540;42.136;24.742;2023-05-16T02:32:38;23.30;40.10
80230;DHT22;69540;42.136;24.742;2023-05-16T02:35:05;23.30;40.10
80230;DHT22;69540;42.136;24.742;2023-05-16T02:37:31;23.30;40.00
80230;DHT22;69540;42.136;24.742;2023-05-16T02:39:56;23.30;40.10
80230;DHT22;69540;42.136;24.742;2023-05-16T02:42:25;23.30;40.10
80230;DHT22;69540;42.136;24.742;2023-05-16T02:44:52;23.30;40.10
80230;DHT22;69540;42.136;24.742;2023-05-16T02:47:17;23.30;40.10
80230;DHT22;69540;42.136;24.742;2023-05-16T02:49:43;23.30;40.10
80230;DHT22;69540;42.136;24.742;2023-05-16T02:52:09;23.30;40.10
80230;DHT22;69540;42.136;24.742;2023-05-16T02:54:34;23.30;40.10
80230;DHT22;69540;42.136;24.742;2023-05-16T02:57:00;23.30;40.10
80230;DHT22;69540;42.136;24.742;2023-05-16T02:59:26;23.30;40.10
80230;DHT22;69540;42.136;24.742;2023-05-16T03:01:52;23.30;40.10
80230;DHT22;69540;42.136;24.742;2023-05-16T03:04:17;23.30;40.10
80230;DHT22;69540;42.136;24.742;2023-05-16T03:06:43;23.30;40.10
80230;DHT22;69540;42.136;24.742;2023-05-16T03:09:09;23.30;40.10
80230;DHT22;69540;42.136;24.742;2023-05-16T03:11:34;23.30;40.10
80230;DHT22;69540;42.136;24.742;2023-05-16T03:14:00;23.30;40.10
80230;DHT22;69540;42.136;24.742;2023-05-16T03:16:26;23.30;40.10
80230;DHT22;69540;42.136;24.742;2023-05-16T03:18:51;23.30;40.00
80230;DHT22;69540;42.136;24.742;2023-05-16T03:21:17;23.30;40.10
80230;DHT22;69540;42.136;24.742;2023-05-16T03:23:42;23.30;40.10
80230;DHT22;69540;42.136;24.742;2023-05-16T03:26:08;23.30;40.10
80230;DHT22;69540;42.136;24.742;2023-05-16T03:28:34;23.30;40.10
80230;DHT22;69540;42.136;24.742;2023-05-16T03:31:00;23.30;40.00
80230;DHT22;69540;42.136;24.742;2023-05-16T03:33:26;23.30;40.00
80230;DHT22;69540;42.136;24.742;2023-05-16T03:35:51;23.30;40.00
80230;DHT22;69540;42.136;24.742;2023-05-16T03:38:17;23.30;40.10
80230;DHT22;69540;42.136;24.742;2023-05-16T03:40:43;23.30;40.00
80230;DHT22;69540;42.136;24.742;2023-05-16T03:43:09;23.30;40.30
80230;DHT22;69540;42.136;24.742;2023-05-16T03:45:34;23.30;40.10
80230;DHT22;69540;42.136;24.742;2023-05-16T03:48:00;23.30;40.00
80230;DHT22;69540;42.136;24.742;2023-05-16T03:50:26;23.30;40.00
80230;DHT22;69540;42.136;24.742;2023-05-16T03:52:51;23.30;40.00
80230;DHT22;69540;42.136;24.742;2023-05-16T03:55:18;23.20;40.00
80230;DHT22;69540;42.136;24.742;2023-05-16T03:57:44;23.30;40.00
80230;DHT22;69540;42.136;24.742;2023-05-16T04:00:11;23.30;40.30
80230;DHT22;69540;42.136;24.742;2023-05-16T04:02:38;23.30;41.10
80230;DHT22;69540;42.136;24.742;2023-05-16T04:05:08;23.30;41.50
80230;DHT22;69540;42.136;24.742;2023-05-16T04:07:35;23.30;41.70
80230;DHT22;69540;42.136;24.742;2023-05-16T04:10:01;23.20;41.80
80230;DHT22;69540;42.136;24.742;2023-05-16T04:12:26;23.30;42.00
80230;DHT22;69540;42.136;24.742;2023-05-16T04:14:52;23.20;42.10
80230;DHT22;69540;42.136;24.742;2023-05-16T04:17:18;23.20;42.20
80230;DHT22;69540;42.136;24.742;2023-05-16T04:19:43;23.20;42.40
80230;DHT22;69540;42.136;24.742;2023-05-16T04:22:09;23.30;42.80
80230;DHT22;69540;42.136;24.742;2023-05-16T04:24:35;23.20;43.20
80230;DHT22;69540;42.136;24.742;2023-05-16T04:27:00;23.20;44.60
80230;DHT22;69540;42.136;24.742;2023-05-16T04:29:26;23.20;43.70
80230;DHT22;69540;42.136;24.742;2023-05-16T04:31:52;23.20;43.80
80230;DHT22;69540;42.136;24.742;2023-05-16T04:34:18;23.20;44.00
80230;DHT22;69540;42.136;24.742;2023-05-16T04:36:43;23.20;44.10
80230;DHT22;69540;42.136;24.742;2023-05-16T04:39:09;23.20;44.10
80230;DHT22;69540;42.136;24.742;2023-05-16T04:41:35;23.20;44.30
80230;DHT22;69540;42.136;24.742;2023-05-16T04:44:01;23.20;44.50
80230;DHT22;69540;42.136;24.742;2023-05-16T04:46:30;23.20;44.50
80230;DHT22;69540;42.136;24.742;2023-05-16T04:48:56;23.30;44.60
80230;DHT22;69540;42.136;24.742;2023-05-16T04:51:22;23.20;44.50
80230;DHT22;69540;42.136;24.742;2023-05-16T04:53:48;23.20;44.90
80230;DHT22;69540;42.136;24.742;2023-05-16T04:56:13;23.20;47.70
80230;DHT22;69540;42.136;24.742;2023-05-16T04:58:39;23.20;48.30
80230;DHT22;69540;42.136;24.742;2023-05-16T05:01:04;23.20;47.80
80230;DHT22;69540;42.136;24.742;2023-05-16T05:03:30;23.20;46.90
80230;DHT22;69540;42.136;24.742;2023-05-16T05:05:56;23.20;45.80
80230;DHT22;69540;42.136;24.742;2023-05-16T05:08:22;23.20;45.50
80230;DHT22;69540;42.136;24.742;2023-05-16T05:10:47;23.20;45.40
80230;DHT22;69540;42.136;24.742;2023-05-16T05:13:13;23.20;45.20
80230;DHT22;69540;42.136;24.742;2023-05-16T05:15:39;23.10;44.90
80230;DHT22;69540;42.136;24.742;2023-05-16T05:18:05;23.10;44.80
80230;DHT22;69540;42.136;24.742;2023-05-16T05:20:30;23.10;44.70
80230;DHT22;69540;42.136;24.742;2023-05-16T05:22:56;23.10;44.70
80230;DHT22;69540;42.136;24.742;2023-05-16T05:25:22;23.10;44.70
80230;DHT22;69540;42.136;24.742;2023-05-16T05:27:47;23.10;44.70
80230;DHT22;69540;42.136;24.742;2023-05-16T05:30:13;23.20;44.60
80230;DHT22;69540;42.136;24.742;2023-05-16T05:32:38;23.20;44.60
80230;DHT22;69540;42.136;24.742;2023-05-16T05:35:05;23.20;44.70
80230;DHT22;69540;42.136;24.742;2023-05-16T05:37:30;23.20;44.70
80230;DHT22;69540;42.136;24.742;2023-05-16T05:39:56;23.20;44.50
80230;DHT22;69540;42.136;24.742;2023-05-16T05:42:22;23.20;44.70
80230;DHT22;69540;42.136;24.742;2023-05-16T05:44:48;23.20;44.80
80230;DHT22;69540;42.136;24.742;2023-05-16T05:47:13;23.20;44.90
80230;DHT22;69540;42.136;24.742;2023-05-16T05:49:39;23.20;44.70
80230;DHT22;69540;42.136;24.742;2023-05-16T05:52:05;23.20;44.70
80230;DHT22;69540;42.136;24.742;2023-05-16T05:54:31;23.20;44.50
80230;DHT22;69540;42.136;24.742;2023-05-16T05:56:57;23.20;44.60
80230;DHT22;69540;42.136;24.742;2023-05-16T05:59:23;23.30;44.60
80230;DHT22;69540;42.136;24.742;2023-05-16T06:01:49;23.30;44.60
80230;DHT22;69540;42.136;24.742;2023-05-16T06:04:20;23.30;44.50
80230;DHT22;69540;42.136;24.742;2023-05-16T06:06:46;23.30;44.50
80230;DHT22;69540;42.136;24.742;2023-05-16T06:09:12;23.30;44.30
80230;DHT22;69540;42.136;24.742;2023-05-16T06:11:39;23.30;44.40
80230;DHT22;69540;42.136;24.742;2023-05-16T06:14:05;23.30;44.60
80230;DHT22;69540;42.136;24.742;2023-05-16T06:16:31;23.30;44.50
80230;DHT22;69540;42.136;24.742;2023-05-16T06:18:57;23.40;44.70
80230;DHT22;69540;42.136;24.742;2023-05-16T06:21:22;23.40;44.60
80230;DHT22;69540;42.136;24.742;2023-05-16T06:23:48;23.40;44.80
80230;DHT22;69540;42.136;24.742;2023-05-16T06:26:14;23.40;44.80
80230;DHT22;69540;42.136;24.742;2023-05-16T06:28:40;23.40;44.80
80230;DHT22;69540;42.136;24.742;2023-05-16T06:31:05;23.40;44.70
80230;DHT22;69540;42.136;24.742;2023-05-16T06:33:31;23.40;44.80
80230;DHT22;69540;42.136;24.742;2023-05-16T06:35:57;23.40;44.80
80230;DHT22;69540;42.136;24.742;2023-05-16T06:38:23;23.40;44.90
80230;DHT22;69540;42.136;24.742;2023-05-16T06:40:48;23.40;44.80
80230;DHT22;69540;42.136;24.742;2023-05-16T06:43:14;23.50;44.70
80230;DHT22;69540;42.136;24.742;2023-05-16T06:45:40;23.50;44.80
80230;DHT22;69540;42.136;24.742;2023-05-16T06:48:06;23.50;44.80
80230;DHT22;69540;42.136;24.742;2023-05-16T06:50:32;23.40;44.70
80230;DHT22;69540;42.136;24.742;2023-05-16T06:53:02;23.50;44.70
80230;DHT22;69540;42.136;24.742;2023-05-16T06:55:29;23.50;44.70
80230;DHT22;69540;42.136;24.742;2023-05-16T06:57:55;23.50;44.60
80230;DHT22;69540;42.136;24.742;2023-05-16T07:00:20;23.50;44.50
80230;DHT22;69540;42.136;24.742;2023-05-16T07:02:46;23.50;44.50
80230;DHT22;69540;42.136;24.742;2023-05-16T07:05:12;23.50;44.50
80230;DHT22;69540;42.136;24.742;2023-05-16T07:07:37;23.50;44.50
80230;DHT22;69540;42.136;24.742;2023-05-16T07:10:03;23.50;44.50
80230;DHT22;69540;42.136;24.742;2023-05-16T07:12:29;23.50;44.60
80230;DHT22;69540;42.136;24.742;2023-05-16T07:14:55;23.50;44.50
80230;DHT22;69540;42.136;24.742;2023-05-16T07:17:21;23.60;44.40
80230;DHT22;69540;42.136;24.742;2023-05-16T07:19:46;23.50;44.40
80230;DHT22;69540;42.136;24.742;2023-05-16T07:22:12;23.50;44.40
80230;DHT22;69540;42.136;24.742;2023-05-16T07:24:38;23.60;44.30
80230;DHT22;69540;42.136;24.742;2023-05-16T07:27:04;23.50;45.40
80230;DHT22;69540;42.136;24.742;2023-05-16T07:29:29;23.60;44.40
80230;DHT22;69540;42.136;24.742;2023-05-16T07:31:55;23.60;44.40
80230;DHT22;69540;42.136;24.742;2023-05-16T07:34:21;23.50;44.30
80230;DHT22;69540;42.136;24.742;2023-05-16T07:36:47;23.60;44.30
80230;DHT22;69540;42.136;24.742;2023-05-16T07:39:12;23.60;44.30
80230;DHT22;69540;42.136;24.742;2023-05-16T07:41:39;23.60;44.30
80230;DHT22;69540;42.136;24.742;2023-05-16T07:44:04;23.60;44.30
80230;DHT22;69540;42.136;24.742;2023-05-16T07:46:30;23.60;44.30
80230;DHT22;69540;42.136;24.742;2023-05-16T07:48:56;23.60;44.30
80230;DHT22;69540;42.136;24.742;2023-05-16T07:51:21;23.60;44.30
80230;DHT22;69540;42.136;24.742;2023-05-16T07:53:47;23.60;44.30
80230;DHT22;69540;42.136;24.742;2023-05-16T07:56:13;23.60;44.30
80230;DHT22;69540;42.136;24.742;2023-05-16T07:58:38;23.60;44.30
80230;DHT22;69540;42.136;24.742;2023-05-16T08:01:04;23.60;44.30
80230;DHT22;69540;42.136;24.742;2023-05-16T08:03:30;23.60;44.30
80230;DHT22;69540;42.136;24.742;2023-05-16T08:05:56;23.60;44.20
80230;DHT22;69540;42.136;24.742;2023-05-16T08:08:21;23.60;44.30
80230;DHT22;69540;42.136;24.742;2023-05-16T08:10:47;23.60;44.20
80230;DHT22;69540;42.136;24.742;2023-05-16T08:13:12;23.60;44.10
80230;DHT22;69540;42.136;24.742;2023-05-16T08:15:38;23.60;44.10
80230;DHT22;69540;42.136;24.742;2023-05-16T08:18:04;23.60;44.10
80230;DHT22;69540;42.136;24.742;2023-05-16T08:20:36;23.60;44.10
80230;DHT22;69540;42.136;24.742;2023-05-16T08:23:02;23.60;44.30
80230;DHT22;69540;42.136;24.742;2023-05-16T08:25:28;23.60;44.40
80230;DHT22;69540;42.136;24.742;2023-05-16T08:27:53;23.60;44.30
80230;DHT22;69540;42.136;24.742;2023-05-16T08:30:19;23.60;44.40
80230;DHT22;69540;42.136;24.742;2023-05-16T08:32:45;23.70;44.50
80230;DHT22;69540;42.136;24.742;2023-05-16T08:35:10;23.60;44.50
80230;DHT22;69540;42.136;24.742;2023-05-16T08:37:37;23.60;44.50
80230;DHT22;69540;42.136;24.742;2023-05-16T08:40:05;23.70;44.60
80230;DHT22;69540;42.136;24.742;2023-05-16T08:42:33;23.70;44.60
80230;DHT22;69540;42.136;24.742;2023-05-16T08:44:58;23.70;44.60
80230;DHT22;69540;42.136;24.742;2023-05-16T08:47:26;23.70;44.60
80230;DHT22;69540;42.136;24.742;2023-05-16T08:49:56;23.70;44.60
80230;DHT22;69540;42.136;24.742;2023-05-16T08:52:25;23.70;44.50
80230;DHT22;69540;42.136;24.742;2023-05-16T08:54:55;23.70;44.50
80230;DHT22;69540;42.136;24.742;2023-05-16T08:57:21;23.70;44.50
80230;DHT22;69540;42.136;24.742;2023-05-16T08:59:47;23.70;44.40
80230;DHT22;69540;42.136;24.742;2023-05-16T09:02:13;23.70;44.40
80230;DHT22;69540;42.136;24.742;2023-05-16T09:04:39;23.80;44.50
80230;DHT22;69540;42.136;24.742;2023-05-16T09:07:05;23.70;44.50
80230;DHT22;69540;42.136;24.742;2023-05-16T09:09:31;23.70;44.40
80230;DHT22;69540;42.136;24.742;2023-05-16T09:11:56;23.80;44.50
80230;DHT22;69540;42.136;24.742;2023-05-16T09:14:22;23.80;44.40
80230;DHT22;69540;42.136;24.742;2023-05-16T09:17:07;23.80;44.40
80230;DHT22;69540;42.136;24.742;2023-05-16T09:19:40;23.80;44.40
80230;DHT22;69540;42.136;24.742;2023-05-16T09:22:09;23.80;44.30
80230;DHT22;69540;42.136;24.742;2023-05-16T09:24:43;23.80;44.40
80230;DHT22;69540;42.136;24.742;2023-05-16T09:27:13;23.80;44.30
80230;DHT22;69540;42.136;24.742;2023-05-16T09:29:40;23.80;44.40
80230;DHT22;69540;42.136;24.742;2023-05-16T09:32:12;23.80;44.30
80230;DHT22;69540;42.136;24.742;2023-05-16T09:34:45;23.80;44.40
80230;DHT22;69540;42.136;24.742;2023-05-16T09:37:16;23.80;44.30
80230;DHT22;69540;42.136;24.742;2023-05-16T09:42:13;23.80;44.30
80230;DHT22;69540;42.136;24.742;2023-05-16T09:44:39;23.80;44.40
80230;DHT22;69540;42.136;24.742;2023-05-16T09:47:05;23.80;44.50
80230;DHT22;69540;42.136;24.742;2023-05-16T09:49:31;23.80;44.50
80230;DHT22;69540;42.136;24.742;2023-05-16T09:52:01;23.80;44.40
80230;DHT22;69540;42.136;24.742;2023-05-16T09:54:33;23.80;44.40
80230;DHT22;69540;42.136;24.742;2023-05-16T09:56:59;23.80;44.40
80230;DHT22;69540;42.136;24.742;2023-05-16T09:59:27;23.80;44.40
80230;DHT22;69540;42.136;24.742;2023-05-16T10:01:53;23.80;44.40
80230;DHT22;69540;42.136;24.742;2023-05-16T10:04:20;23.80;44.40
80230;DHT22;69540;42.136;24.742;2023-05-16T10:06:46;23.80;44.30
80230;DHT22;69540;42.136;24.742;2023-05-16T10:09:14;23.80;44.30
80230;DHT22;69540;42.136;24.742;2023-05-16T10:11:41;23.80;44.30
80230;DHT22;69540;42.136;24.742;2023-05-16T10:14:10;23.80;44.20
80230;DHT22;69540;42.136;24.742;2023-05-16T10:16:36;23.80;44.20
80230;DHT22;69540;42.136;24.742;2023-05-16T10:19:02;23.80;44.20
80230;DHT22;69540;42.136;24.742;2023-05-16T10:21:28;23.80;44.20
80230;DHT22;69540;42.136;24.742;2023-05-16T10:23:57;23.80;44.20
80230;DHT22;69540;42.136;24.742;2023-05-16T10:26:23;23.80;44.10
80230;DHT22;69540;42.136;24.742;2023-05-16T10:28:50;23.80;44.10
80230;DHT22;69540;42.136;24.742;2023-05-16T10:31:17;23.80;44.10
80230;DHT22;69540;42.136;24.742;2023-05-16T10:33:43;23.80;44.00
80230;DHT22;69540;42.136;24.742;2023-05-16T10:36:11;23.80;44.00
80230;DHT22;69540;42.136;24.742;2023-05-16T10:38:37;23.80;43.90
80230;DHT22;69540;42.136;24.742;2023-05-16T10:41:04;23.80;43.90
80230;DHT22;69540;42.136;24.742;2023-05-16T10:43:31;23.80;43.90
80230;DHT22;69540;42.136;24.742;2023-05-16T10:46:07;23.80;43.90
80230;DHT22;69540;42.136;24.742;2023-05-16T10:48:41;23.80;44.00
80230;DHT22;69540;42.136;24.742;2023-05-16T10:51:39;23.80;44.10
80230;DHT22;69540;42.136;24.742;2023-05-16T10:54:09;23.80;44.00
80230;DHT22;69540;42.136;24.742;2023-05-16T10:56:35;23.70;44.10
80230;DHT22;69540;42.136;24.742;2023-05-16T10:59:01;23.80;44.10
80230;DHT22;69540;42.136;24.742;2023-05-16T11:01:34;23.70;44.10
80230;DHT22;69540;42.136;24.742;2023-05-16T11:04:04;23.80;44.10
80230;DHT22;69540;42.136;24.742;2023-05-16T11:09:07;23.80;44.20
80230;DHT22;69540;42.136;24.742;2023-05-16T11:14:07;23.80;44.50
80230;DHT22;69540;42.136;24.742;2023-05-16T11:16:34;23.80;44.40
80230;DHT22;69540;42.136;24.742;2023-05-16T11:19:04;23.80;44.40
80230;DHT22;69540;42.136;24.742;2023-05-16T11:24:35;23.80;44.50
80230;DHT22;69540;42.136;24.742;2023-05-16T11:27:01;23.80;44.50
80230;DHT22;69540;42.136;24.742;2023-05-16T11:29:31;23.80;44.60
80230;DHT22;69540;42.136;24.742;2023-05-16T11:31:59;23.80;44.60
80230;DHT22;69540;42.136;24.742;2023-05-16T11:34:25;23.80;44.60
80230;DHT22;69540;42.136;24.742;2023-05-16T11:36:51;23.80;44.60
80230;DHT22;69540;42.136;24.742;2023-05-16T11:39:17;23.80;45.70
80230;DHT22;69540;42.136;24.742;2023-05-16T11:41:44;23.80;44.70
80230;DHT22;69540;42.136;24.742;2023-05-16T11:44:13;23.80;44.70
80230;DHT22;69540;42.136;24.742;2023-05-16T11:46:39;23.80;44.60
80230;DHT22;69540;42.136;24.742;2023-05-16T11:49:10;23.80;44.50
80230;DHT22;69540;42.136;24.742;2023-05-16T11:51:39;23.80;44.40
80230;DHT22;69540;42.136;24.742;2023-05-16T11:54:06;23.80;44.40
80230;DHT22;69540;42.136;24.742;2023-05-16T11:56:34;23.80;44.40
80230;DHT22;69540;42.136;24.742;2023-05-16T11:59:01;23.80;44.30
80230;DHT22;69540;42.136;24.742;2023-05-16T12:01:34;23.80;44.30
80230;DHT22;69540;42.136;24.742;2023-05-16T12:04:01;23.80;44.30
80230;DHT22;69540;42.136;24.742;2023-05-16T12:06:28;23.80;44.20
80230;DHT22;69540;42.136;24.742;2023-05-16T12:08:55;23.80;44.20
80230;DHT22;69540;42.136;24.742;2023-05-16T12:11:22;23.80;45.20
80230;DHT22;69540;42.136;24.742;2023-05-16T12:13:48;23.80;44.10
80230;DHT22;69540;42.136;24.742;2023-05-16T12:16:14;23.80;44.20
80230;DHT22;69540;42.136;24.742;2023-05-16T12:18:41;23.90;44.10
80230;DHT22;69540;42.136;24.742;2023-05-16T12:21:07;23.90;44.10
80230;DHT22;69540;42.136;24.742;2023-05-16T12:23:33;23.90;44.10
80230;DHT22;69540;42.136;24.742;2023-05-16T12:25:58;23.90;44.10
80230;DHT22;69540;42.136;24.742;2023-05-16T12:28:31;23.90;44.10
80230;DHT22;69540;42.136;24.742;2023-05-16T12:31:02;23.80;44.00
80230;DHT22;69540;42.136;24.742;2023-05-16T12:33:27;23.80;44.20
80230;DHT22;69540;42.136;24.742;2023-05-16T12:35:53;23.80;44.20
80230;DHT22;69540;42.136;24.742;2023-05-16T12:38:19;23.80;44.20
80230;DHT22;69540;42.136;24.742;2023-05-16T12:40:48;23.80;44.20
80230;DHT22;69540;42.136;24.742;2023-05-16T12:43:21;23.90;44.30
80230;DHT22;69540;42.136;24.742;2023-05-16T12:45:55;23.90;44.20
80230;DHT22;69540;42.136;24.742;2023-05-16T12:48:22;23.90;44.30
80230;DHT22;69540;42.136;24.742;2023-05-16T12:50:48;23.90;44.40
80230;DHT22;69540;42.136;24.742;2023-05-16T12:53:15;23.90;44.40
80230;DHT22;69540;42.136;24.742;2023-05-16T12:55:42;23.90;44.40
80230;DHT22;69540;42.136;24.742;2023-05-16T12:58:09;23.90;44.30
80230;DHT22;69540;42.136;24.742;2023-05-16T13:00:36;23.90;44.30
80230;DHT22;69540;42.136;24.742;2023-05-16T13:03:04;23.90;44.20
80230;DHT22;69540;42.136;24.742;2023-05-16T13:05:30;23.90;44.20
80230;DHT22;69540;42.136;24.742;2023-05-16T13:07:56;23.90;44.20
80230;DHT22;69540;42.136;24.742;2023-05-16T13:10:22;23.90;44.20
80230;DHT22;69540;42.136;24.742;2023-05-16T13:12:47;23.90;44.10
80230;DHT22;69540;42.136;24.742;2023-05-16T13:15:13;23.90;44.10
80230;DHT22;69540;42.136;24.742;2023-05-16T13:17:41;23.90;44.10
80230;DHT22;69540;42.136;24.742;2023-05-16T13:20:08;23.90;44.10
80230;DHT22;69540;42.136;24.742;2023-05-16T13:22:38;24.00;44.10
80230;DHT22;69540;42.136;24.742;2023-05-16T13:25:04;24.00;44.00
80230;DHT22;69540;42.136;24.742;2023-05-16T13:27:31;24.00;44.00
80230;DHT22;69540;42.136;24.742;2023-05-16T13:29:57;24.00;43.90
80230;DHT22;69540;42.136;24.742;2023-05-16T13:32:23;24.00;44.00
80230;DHT22;69540;42.136;24.742;2023-05-16T13:34:49;23.90;43.90
80230;DHT22;69540;42.136;24.742;2023-05-16T13:37:16;24.00;43.90
80230;DHT22;69540;42.136;24.742;2023-05-16T13:39:41;24.00;43.90
80230;DHT22;69540;42.136;24.742;2023-05-16T13:42:07;24.00;43.80
80230;DHT22;69540;42.136;24.742;2023-05-16T13:44:33;24.00;43.70
80230;DHT22;69540;42.136;24.742;2023-05-16T13:46:59;24.00;43.70
80230;DHT22;69540;42.136;24.742;2023-05-16T13:49:25;24.00;43.80
80230;DHT22;69540;42.136;24.742;2023-05-16T13:51:50;24.00;43.80
80230;DHT22;69540;42.136;24.742;2023-05-16T13:54:17;24.00;43.80
80230;DHT22;69540;42.136;24.742;2023-05-16T13:56:43;24.00;43.80
80230;DHT22;69540;42.136;24.742;2023-05-16T13:59:09;24.00;43.90
80230;DHT22;69540;42.136;24.742;2023-05-16T14:01:35;24.00;43.90
80230;DHT22;69540;42.136;24.742;2023-05-16T14:04:01;24.00;43.90
80230;DHT22;69540;42.136;24.742;2023-05-16T14:06:27;24.00;44.10
80230;DHT22;69540;42.136;24.742;2023-05-16T14:08:53;24.00;44.00
80230;DHT22;69540;42.136;24.742;2023-05-16T14:11:19;24.00;44.00
80230;DHT22;69540;42.136;24.742;2023-05-16T14:13:47;24.00;44.00
80230;DHT22;69540;42.136;24.742;2023-05-16T14:16:13;24.00;44.00
80230;DHT22;69540;42.136;24.742;2023-05-16T14:18:39;24.10;44.10
80230;DHT22;69540;42.136;24.742;2023-05-16T14:21:05;24.00;44.10
80230;DHT22;69540;42.136;24.742;2023-05-16T14:23:31;24.00;44.20
80230;DHT22;69540;42.136;24.742;2023-05-16T14:25:56;24.00;44.20
80230;DHT22;69540;42.136;24.742;2023-05-16T14:28:22;24.00;44.10
80230;DHT22;69540;42.136;24.742;2023-05-16T14:30:48;24.00;44.20
80230;DHT22;69540;42.136;24.742;2023-05-16T14:33:13;24.00;44.20
80230;DHT22;69540;42.136;24.742;2023-05-16T14:35:39;24.00;44.20
80230;DHT22;69540;42.136;24.742;2023-05-16T14:38:05;24.00;44.20
80230;DHT22;69540;42.136;24.742;2023-05-16T14:40:32;24.00;44.30
80230;DHT22;69540;42.136;24.742;2023-05-16T14:42:58;24.00;44.30
80230;DHT22;69540;42.136;24.742;2023-05-16T14:45:24;24.00;44.60
80230;DHT22;69540;42.136;24.742;2023-05-16T14:47:50;24.00;44.60
80230;DHT22;69540;42.136;24.742;2023-05-16T14:50:16;24.00;44.70
80230;DHT22;69540;42.136;24.742;2023-05-16T14:52:42;24.00;44.60
80230;DHT22;69540;42.136;24.742;2023-05-16T14:55:08;24.10;44.80
80230;DHT22;69540;42.136;24.742;2023-05-16T14:57:34;24.00;44.80
80230;DHT22;69540;42.136;24.742;2023-05-16T15:00:00;24.00;44.70
80230;DHT22;69540;42.136;24.742;2023-05-16T15:02:26;24.00;44.70
80230;DHT22;69540;42.136;24.742;2023-05-16T15:04:52;24.00;44.80
80230;DHT22;69540;42.136;24.742;2023-05-16T15:07:19;24.00;44.80
80230;DHT22;69540;42.136;24.742;2023-05-16T15:09:45;24.00;44.90
80230;DHT22;69540;42.136;24.742;2023-05-16T15:12:10;24.00;44.90
80230;DHT22;69540;42.136;24.742;2023-05-16T15:14:36;24.00;45.00
80230;DHT22;69540;42.136;24.742;2023-05-16T15:17:02;24.00;45.00
80230;DHT22;69540;42.136;24.742;2023-05-16T15:19:28;24.10;46.30
80230;DHT22;69540;42.136;24.742;2023-05-16T15:21:54;24.00;45.20
80230;DHT22;69540;42.136;24.742;2023-05-16T15:24:20;24.00;45.20
80230;DHT22;69540;42.136;24.742;2023-05-16T15:26:45;24.00;45.30
80230;DHT22;69540;42.136;24.742;2023-05-16T15:29:11;24.00;45.30
80230;DHT22;69540;42.136;24.742;2023-05-16T15:31:37;24.00;45.30
80230;DHT22;69540;42.136;24.742;2023-05-16T15:34:03;24.00;45.40
80230;DHT22;69540;42.136;24.742;2023-05-16T15:36:30;24.00;45.40